sensor_id;sensor_type;location;lat;lon;timestamp;P1;durP1;ratioP1;P2;durP2;ratioP2
14169;SDS011;63889;50.596;8.690;2024-03-08T00:01:12;25.52;;;10.57;;
14169;SDS011;63889;50.596;8.690;2024-03-08T00:03:37;26.65;;;11.68;;
14169;SDS011;63889;50.596;8.690;2024-03-08T00:06:05;31.98;;;12.00;;
14169;SDS011;63889;50.596;8.690;2024-03-08T00:08:31;26.70;;;11.27;;
14169;SDS011;63889;50.596;8.690;2024-03-08T00:10:56;27.27;;;11.20;;
14169;SDS011;63889;50.596;8.690;2024-03-08T00:13:22;24.60;;;11.20;;
14169;SDS011;63889;50.596;8.690;2024-03-08T00:15:50;26.85;;;10.63;;
14169;SDS011;63889;50.596;8.690;2024-03-08T00:18:15;30.10;;;11.50;;
14169;SDS011;63889;50.596;8.690;2024-03-08T00:20:41;24.70;;;11.23;;
14169;SDS011;63889;50.596;8.690;2024-03-08T00:23:08;27.77;;;11.73;;
14169;SDS011;63889;50.596;8.690;2024-03-08T00:25:35;28.45;;;12.27;;
14169;SDS011;63889;50.596;8.690;2024-03-08T00:28:01;25.52;;;11.55;;
14169;SDS011;63889;50.596;8.690;2024-03-08T00:30:26;25.55;;;11.25;;
14169;SDS011;63889;50.596;8.690;2024-03-08T00:32:52;27.50;;;11.75;;
14169;SDS011;63889;50.596;8.690;2024-03-08T00:35:18;26.70;;;10.93;;
14169;SDS011;63889;50.596;8.690;2024-03-08T00:37:43;27.77;;;10.73;;
14169;SDS011;63889;50.596;8.690;2024-03-08T00:40:11;30.33;;;11.90;;
14169;SDS011;63889;50.596;8.690;2024-03-08T00:42:37;26.25;;;12.00;;
14169;SDS011;63889;50.596;8.690;2024-03-08T00:45:04;30.98;;;10.90;;
14169;SDS011;63889;50.596;8.690;2024-03-08T00:47:30;25.65;;;11.77;;
14169;SDS011;63889;50.596;8.690;2024-03-08T00:49:56;24.17;;;10.75;;
14169;SDS011;63889;50.596;8.690;2024-03-08T00:52:21;26.95;;;11.75;;
14169;SDS011;63889;50.596;8.690;2024-03-08T00:54:49;26.92;;;11.25;;
14169;SDS011;63889;50.596;8.690;2024-03-08T00:57:14;28.48;;;12.52;;
14169;SDS011;63889;50.596;8.690;2024-03-08T00:59:40;29.42;;;11.93;;
14169;SDS011;63889;50.596;8.690;2024-03-08T01:02:05;27.30;;;11.80;;
14169;SDS011;63889;50.596;8.690;2024-03-08T01:04:31;27.38;;;11.45;;
14169;SDS011;63889;50.596;8.690;2024-03-08T01:06:58;25.52;;;11.70;;
14169;SDS011;63889;50.596;8.690;2024-03-08T01:09:24;29.20;;;11.73;;
14169;SDS011;63889;50.596;8.690;2024-03-08T01:11:51;21.67;;;10.55;;
14169;SDS011;63889;50.596;8.690;2024-03-08T01:14:19;29.13;;;12.27;;
14169;SDS011;63889;50.596;8.690;2024-03-08T01:16:47;34.33;;;11.10;;
14169;SDS011;63889;50.596;8.690;2024-03-08T01:19:13;30.27;;;12.25;;
14169;SDS011;63889;50.596;8.690;2024-03-08T01:21:38;23.98;;;11.32;;
14169;SDS011;63889;50.596;8.690;2024-03-08T01:24:04;25.27;;;10.68;;
14169;SDS011;63889;50.596;8.690;2024-03-08T01:26:30;31.27;;;11.98;;
14169;SDS011;63889;50.596;8.690;2024-03-08T01:28:55;28.58;;;10.45;;
14169;SDS011;63889;50.596;8.690;2024-03-08T01:31:21;25.52;;;11.48;;
14169;SDS011;63889;50.596;8.690;2024-03-08T01:33:46;23.58;;;11.75;;
14169;SDS011;63889;50.596;8.690;2024-03-08T01:36:12;28.90;;;11.70;;
14169;SDS011;63889;50.596;8.690;2024-03-08T01:38:40;24.15;;;11.48;;
14169;SDS011;63889;50.596;8.690;2024-03-08T01:41:07;28.63;;;12.32;;
14169;SDS011;63889;50.596;8.690;2024-03-08T01:43:32;26.65;;;11.23;;
14169;SDS011;63889;50.596;8.690;2024-03-08T01:45:58;27.33;;;12.18;;
14169;SDS011;63889;50.596;8.690;2024-03-08T01:48:27;26.77;;;12.50;;
14169;SDS011;63889;50.596;8.690;2024-03-08T01:50:54;32.20;;;12.95;;
14169;SDS011;63889;50.596;8.690;2024-03-08T01:53:21;29.13;;;11.40;;
14169;SDS011;63889;50.596;8.690;2024-03-08T01:55:48;28.05;;;13.13;;
14169;SDS011;63889;50.596;8.690;2024-03-08T01:58:15;27.25;;;12.65;;
14169;SDS011;63889;50.596;8.690;2024-03-08T02:00:41;27.95;;;11.52;;
14169;SDS011;63889;50.596;8.690;2024-03-08T02:03:09;28.40;;;11.48;;
14169;SDS011;63889;50.596;8.690;2024-03-08T02:05:36;27.90;;;12.80;;
14169;SDS011;63889;50.596;8.690;2024-03-08T02:08:03;33.80;;;12.88;;
14169;SDS011;63889;50.596;8.690;2024-03-08T02:10:32;24.65;;;12.35;;
14169;SDS011;63889;50.596;8.690;2024-03-08T02:12:58;28.70;;;12.20;;
14169;SDS011;63889;50.596;8.690;2024-03-08T02:15:24;25.08;;;10.90;;
14169;SDS011;63889;50.596;8.690;2024-03-08T02:17:50;28.30;;;12.18;;
14169;SDS011;63889;50.596;8.690;2024-03-08T02:20:17;27.38;;;11.38;;
14169;SDS011;63889;50.596;8.690;2024-03-08T02:22:44;29.75;;;11.35;;
14169;SDS011;63889;50.596;8.690;2024-03-08T02:25:10;29.60;;;12.27;;
14169;SDS011;63889;50.596;8.690;2024-03-08T02:27:36;32.30;;;12.82;;
14169;SDS011;63889;50.596;8.690;2024-03-08T02:30:02;29.30;;;12.80;;
14169;SDS011;63889;50.596;8.690;2024-03-08T02:32:28;32.58;;;11.77;;
14169;SDS011;63889;50.596;8.690;2024-03-08T02:34:58;33.85;;;13.57;;
14169;SDS011;63889;50.596;8.690;2024-03-08T02:37:24;29.58;;;12.93;;
14169;SDS011;63889;50.596;8.690;2024-03-08T02:39:50;34.90;;;13.65;;
14169;SDS011;63889;50.596;8.690;2024-03-08T02:42:15;27.65;;;12.48;;
14169;SDS011;63889;50.596;8.690;2024-03-08T02:44:44;28.35;;;13.23;;
14169;SDS011;63889;50.596;8.690;2024-03-08T02:47:10;29.63;;;12.35;;
14169;SDS011;63889;50.596;8.690;2024-03-08T02:49:35;32.33;;;12.60;;
14169;SDS011;63889;50.596;8.690;2024-03-08T02:52:02;28.75;;;12.20;;
14169;SDS011;63889;50.596;8.690;2024-03-08T02:54:29;30.73;;;13.27;;
14169;SDS011;63889;50.596;8.690;2024-03-08T02:56:54;29.13;;;12.63;;
14169;SDS011;63889;50.596;8.690;2024-03-08T02:59:20;26.08;;;12.10;;
14169;SDS011;63889;50.596;8.690;2024-03-08T03:01:45;30.02;;;12.77;;
14169;SDS011;63889;50.596;8.690;2024-03-08T03:04:11;25.17;;;12.20;;
14169;SDS011;63889;50.596;8.690;2024-03-08T03:06:36;31.95;;;13.55;;
14169;SDS011;63889;50.596;8.690;2024-03-08T03:09:02;32.17;;;13.63;;
14169;SDS011;63889;50.596;8.690;2024-03-08T03:11:28;34.80;;;13.82;;
14169;SDS011;63889;50.596;8.690;2024-03-08T03:13:54;29.80;;;12.85;;
14169;SDS011;63889;50.596;8.690;2024-03-08T03:16:20;32.28;;;12.50;;
14169;SDS011;63889;50.596;8.690;2024-03-08T03:18:46;30.17;;;12.95;;
14169;SDS011;63889;50.596;8.690;2024-03-08T03:21:13;26.85;;;11.73;;
14169;SDS011;63889;50.596;8.690;2024-03-08T03:23:39;27.52;;;12.48;;
14169;SDS011;63889;50.596;8.690;2024-03-08T03:26:05;26.90;;;12.60;;
14169;SDS011;63889;50.596;8.690;2024-03-08T03:28:33;36.42;;;13.43;;
14169;SDS011;63889;50.596;8.690;2024-03-08T03:30:59;31.10;;;12.68;;
14169;SDS011;63889;50.596;8.690;2024-03-08T03:33:26;29.38;;;12.68;;
14169;SDS011;63889;50.596;8.690;2024-03-08T03:35:52;34.53;;;13.40;;
14169;SDS011;63889;50.596;8.690;2024-03-08T03:38:17;29.27;;;12.57;;
14169;SDS011;63889;50.596;8.690;2024-03-08T03:40:44;28.60;;;12.85;;
14169;SDS011;63889;50.596;8.690;2024-03-08T03:43:11;29.42;;;12.57;;
14169;SDS011;63889;50.596;8.690;2024-03-08T03:45:36;31.58;;;13.05;;
14169;SDS011;63889;50.596;8.690;2024-03-08T03:48:03;32.25;;;13.25;;
14169;SDS011;63889;50.596;8.690;2024-03-08T03:50:36;29.67;;;13.85;;
14169;SDS011;63889;50.596;8.690;2024-03-08T03:53:02;37.05;;;13.80;;
14169;SDS011;63889;50.596;8.690;2024-03-08T03:55:29;31.30;;;12.50;;
14169;SDS011;63889;50.596;8.690;2024-03-08T03:57:55;28.77;;;13.07;;
14169;SDS011;63889;50.596;8.690;2024-03-08T04:00:20;34.35;;;14.70;;
14169;SDS011;63889;50.596;8.690;2024-03-08T04:02:46;35.42;;;13.65;;
14169;SDS011;63889;50.596;8.690;2024-03-08T04:05:12;36.42;;;14.18;;
14169;SDS011;63889;50.596;8.690;2024-03-08T04:07:38;31.70;;;13.43;;
14169;SDS011;63889;50.596;8.690;2024-03-08T04:10:04;35.55;;;14.05;;
14169;SDS011;63889;50.596;8.690;2024-03-08T04:12:32;33.95;;;15.10;;
14169;SDS011;63889;50.596;8.690;2024-03-08T04:15:00;38.42;;;14.23;;
14169;SDS011;63889;50.596;8.690;2024-03-08T04:17:26;33.00;;;13.18;;
14169;SDS011;63889;50.596;8.690;2024-03-08T04:19:52;26.42;;;12.45;;
14169;SDS011;63889;50.596;8.690;2024-03-08T04:22:18;34.40;;;13.50;;
14169;SDS011;63889;50.596;8.690;2024-03-08T04:24:44;31.92;;;13.68;;
14169;SDS011;63889;50.596;8.690;2024-03-08T04:27:10;35.28;;;14.02;;
14169;SDS011;63889;50.596;8.690;2024-03-08T04:29:36;36.33;;;14.18;;
14169;SDS011;63889;50.596;8.690;2024-03-08T04:32:03;32.47;;;14.43;;
14169;SDS011;63889;50.596;8.690;2024-03-08T04:34:30;32.75;;;14.05;;
14169;SDS011;63889;50.596;8.690;2024-03-08T04:37:01;35.35;;;13.98;;
14169;SDS011;63889;50.596;8.690;2024-03-08T04:39:29;37.03;;;14.85;;
14169;SDS011;63889;50.596;8.690;2024-03-08T04:41:56;33.10;;;13.60;;
14169;SDS011;63889;50.596;8.690;2024-03-08T04:44:25;34.33;;;14.15;;
14169;SDS011;63889;50.596;8.690;2024-03-08T04:46:51;33.35;;;13.45;;
14169;SDS011;63889;50.596;8.690;2024-03-08T04:49:16;38.72;;;13.40;;
14169;SDS011;63889;50.596;8.690;2024-03-08T04:51:42;37.55;;;14.02;;
14169;SDS011;63889;50.596;8.690;2024-03-08T04:54:09;36.72;;;14.50;;
14169;SDS011;63889;50.596;8.690;2024-03-08T04:56:35;34.33;;;13.57;;
14169;SDS011;63889;50.596;8.690;2024-03-08T04:59:01;34.47;;;13.88;;
14169;SDS011;63889;50.596;8.690;2024-03-08T05:01:26;38.05;;;13.88;;
14169;SDS011;63889;50.596;8.690;2024-03-08T05:03:52;28.13;;;12.48;;
14169;SDS011;63889;50.596;8.690;2024-03-08T05:06:20;33.38;;;12.68;;
14169;SDS011;63889;50.596;8.690;2024-03-08T05:08:45;30.77;;;12.63;;
14169;SDS011;63889;50.596;8.690;2024-03-08T05:11:11;31.70;;;13.43;;
14169;SDS011;63889;50.596;8.690;2024-03-08T05:13:39;33.72;;;13.85;;
14169;SDS011;63889;50.596;8.690;2024-03-08T05:16:05;33.83;;;14.13;;
14169;SDS011;63889;50.596;8.690;2024-03-08T05:18:32;33.38;;;14.25;;
14169;SDS011;63889;50.596;8.690;2024-03-08T05:20:58;37.78;;;14.85;;
14169;SDS011;63889;50.596;8.690;2024-03-08T05:23:24;34.53;;;14.13;;
14169;SDS011;63889;50.596;8.690;2024-03-08T05:25:49;32.47;;;13.95;;
14169;SDS011;63889;50.596;8.690;2024-03-08T05:28:15;35.88;;;13.77;;
14169;SDS011;63889;50.596;8.690;2024-03-08T05:30:41;31.77;;;14.07;;
14169;SDS011;63889;50.596;8.690;2024-03-08T05:33:06;36.75;;;13.88;;
14169;SDS011;63889;50.596;8.690;2024-03-08T05:35:35;37.78;;;14.13;;
14169;SDS011;63889;50.596;8.690;2024-03-08T05:38:01;33.15;;;13.27;;
14169;SDS011;63889;50.596;8.690;2024-03-08T05:40:26;36.05;;;13.57;;
14169;SDS011;63889;50.596;8.690;2024-03-08T05:42:56;26.92;;;13.23;;
14169;SDS011;63889;50.596;8.690;2024-03-08T05:45:23;36.58;;;14.85;;
14169;SDS011;63889;50.596;8.690;2024-03-08T05:47:50;35.22;;;13.93;;
14169;SDS011;63889;50.596;8.690;2024-03-08T05:50:16;31.25;;;13.27;;
14169;SDS011;63889;50.596;8.690;2024-03-08T05:52:42;34.05;;;14.48;;
14169;SDS011;63889;50.596;8.690;2024-03-08T05:55:08;35.00;;;14.63;;
14169;SDS011;63889;50.596;8.690;2024-03-08T05:57:34;34.30;;;13.98;;
14169;SDS011;63889;50.596;8.690;2024-03-08T06:00:04;38.15;;;13.35;;
14169;SDS011;63889;50.596;8.690;2024-03-08T06:02:31;34.03;;;13.55;;
14169;SDS011;63889;50.596;8.690;2024-03-08T06:04:56;31.77;;;13.90;;
14169;SDS011;63889;50.596;8.690;2024-03-08T06:07:22;37.00;;;14.32;;
14169;SDS011;63889;50.596;8.690;2024-03-08T06:09:47;32.97;;;13.27;;
14169;SDS011;63889;50.596;8.690;2024-03-08T06:12:14;39.88;;;14.20;;
14169;SDS011;63889;50.596;8.690;2024-03-08T06:14:43;33.42;;;14.18;;
14169;SDS011;63889;50.596;8.690;2024-03-08T06:17:09;31.52;;;13.68;;
14169;SDS011;63889;50.596;8.690;2024-03-08T06:19:36;33.67;;;14.60;;
14169;SDS011;63889;50.596;8.690;2024-03-08T06:22:01;32.40;;;13.45;;
14169;SDS011;63889;50.596;8.690;2024-03-08T06:24:30;32.00;;;13.43;;
14169;SDS011;63889;50.596;8.690;2024-03-08T06:26:56;34.47;;;14.13;;
14169;SDS011;63889;50.596;8.690;2024-03-08T06:29:22;36.78;;;14.77;;
14169;SDS011;63889;50.596;8.690;2024-03-08T06:31:48;34.10;;;15.43;;
14169;SDS011;63889;50.596;8.690;2024-03-08T06:34:14;43.08;;;13.45;;
14169;SDS011;63889;50.596;8.690;2024-03-08T06:36:40;35.80;;;13.57;;
14169;SDS011;63889;50.596;8.690;2024-03-08T06:39:06;31.30;;;14.25;;
14169;SDS011;63889;50.596;8.690;2024-03-08T06:41:35;38.63;;;14.90;;
14169;SDS011;63889;50.596;8.690;2024-03-08T06:44:01;36.70;;;15.25;;
14169;SDS011;63889;50.596;8.690;2024-03-08T06:46:27;38.08;;;14.32;;
14169;SDS011;63889;50.596;8.690;2024-03-08T06:48:53;37.58;;;13.95;;
14169;SDS011;63889;50.596;8.690;2024-03-08T06:51:18;35.30;;;14.07;;
14169;SDS011;63889;50.596;8.690;2024-03-08T06:53:44;30.77;;;14.82;;
14169;SDS011;63889;50.596;8.690;2024-03-08T06:56:10;41.20;;;14.85;;
14169;SDS011;63889;50.596;8.690;2024-03-08T06:58:35;32.33;;;13.95;;
14169;SDS011;63889;50.596;8.690;2024-03-08T07:01:01;34.33;;;13.57;;
14169;SDS011;63889;50.596;8.690;2024-03-08T07:03:29;35.35;;;13.63;;
14169;SDS011;63889;50.596;8.690;2024-03-08T07:05:55;33.83;;;13.93;;
14169;SDS011;63889;50.596;8.690;2024-03-08T07:08:23;36.45;;;13.68;;
14169;SDS011;63889;50.596;8.690;2024-03-08T07:10:48;38.25;;;13.90;;
14169;SDS011;63889;50.596;8.690;2024-03-08T07:13:14;33.67;;;14.52;;
14169;SDS011;63889;50.596;8.690;2024-03-08T07:15:40;35.78;;;13.95;;
14169;SDS011;63889;50.596;8.690;2024-03-08T07:18:06;41.33;;;15.32;;
14169;SDS011;63889;50.596;8.690;2024-03-08T07:20:34;38.35;;;14.27;;
14169;SDS011;63889;50.596;8.690;2024-03-08T07:22:59;39.58;;;13.43;;
14169;SDS011;63889;50.596;8.690;2024-03-08T07:25:25;33.78;;;14.32;;
14169;SDS011;63889;50.596;8.690;2024-03-08T07:27:54;34.63;;;14.40;;
14169;SDS011;63889;50.596;8.690;2024-03-08T07:30:21;34.60;;;13.50;;
14169;SDS011;63889;50.596;8.690;2024-03-08T07:33:06;33.38;;;14.15;;
14169;SDS011;63889;50.596;8.690;2024-03-08T07:35:32;29.90;;;13.45;;
14169;SDS011;63889;50.596;8.690;2024-03-08T07:38:02;33.33;;;14.60;;
14169;SDS011;63889;50.596;8.690;2024-03-08T07:40:29;30.50;;;14.32;;
14169;SDS011;63889;50.596;8.690;2024-03-08T07:42:55;35.92;;;13.93;;
14169;SDS011;63889;50.596;8.690;2024-03-08T07:45:20;34.03;;;14.90;;
14169;SDS011;63889;50.596;8.690;2024-03-08T07:47:47;30.90;;;14.13;;
14169;SDS011;63889;50.596;8.690;2024-03-08T07:50:12;38.17;;;15.75;;
14169;SDS011;63889;50.596;8.690;2024-03-08T07:52:41;30.77;;;12.95;;
14169;SDS011;63889;50.596;8.690;2024-03-08T07:55:07;36.70;;;13.50;;
14169;SDS011;63889;50.596;8.690;2024-03-08T07:57:33;33.35;;;13.63;;
14169;SDS011;63889;50.596;8.690;2024-03-08T07:59:59;29.15;;;11.98;;
14169;SDS011;63889;50.596;8.690;2024-03-08T08:02:24;32.70;;;14.07;;
14169;SDS011;63889;50.596;8.690;2024-03-08T08:04:50;34.83;;;13.50;;
14169;SDS011;63889;50.596;8.690;2024-03-08T08:07:16;33.63;;;13.48;;
14169;SDS011;63889;50.596;8.690;2024-03-08T08:09:41;28.60;;;12.38;;
14169;SDS011;63889;50.596;8.690;2024-03-08T08:12:08;33.95;;;12.30;;
14169;SDS011;63889;50.596;8.690;2024-03-08T08:14:37;31.65;;;12.10;;
14169;SDS011;63889;50.596;8.690;2024-03-08T08:17:04;27.80;;;12.23;;
14169;SDS011;63889;50.596;8.690;2024-03-08T08:19:30;30.52;;;12.88;;
14169;SDS011;63889;50.596;8.690;2024-03-08T08:21:56;28.92;;;12.77;;
14169;SDS011;63889;50.596;8.690;2024-03-08T08:24:22;30.02;;;12.13;;
14169;SDS011;63889;50.596;8.690;2024-03-08T08:26:48;28.50;;;11.63;;
14169;SDS011;63889;50.596;8.690;2024-03-08T08:29:14;24.25;;;10.57;;
14169;SDS011;63889;50.596;8.690;2024-03-08T08:31:39;30.45;;;13.40;;
14169;SDS011;63889;50.596;8.690;2024-03-08T08:34:05;32.83;;;11.35;;
14169;SDS011;63889;50.596;8.690;2024-03-08T08:36:32;28.55;;;11.82;;
14169;SDS011;63889;50.596;8.690;2024-03-08T08:38:57;26.60;;;11.07;;
14169;SDS011;63889;50.596;8.690;2024-03-08T08:41:24;26.85;;;11.23;;
14169;SDS011;63889;50.596;8.690;2024-03-08T08:43:50;25.05;;;11.13;;
14169;SDS011;63889;50.596;8.690;2024-03-08T08:46:19;25.42;;;11.10;;
14169;SDS011;63889;50.596;8.690;2024-03-08T08:48:44;23.25;;;10.75;;
14169;SDS011;63889;50.596;8.690;2024-03-08T08:51:13;25.13;;;11.35;;
14169;SDS011;63889;50.596;8.690;2024-03-08T08:53:40;30.08;;;10.98;;
14169;SDS011;63889;50.596;8.690;2024-03-08T08:56:11;25.42;;;10.98;;
14169;SDS011;63889;50.596;8.690;2024-03-08T08:58:38;21.52;;;9.40;;
14169;SDS011;63889;50.596;8.690;2024-03-08T09:01:05;25.70;;;11.10;;
14169;SDS011;63889;50.596;8.690;2024-03-08T09:03:32;25.42;;;11.02;;
14169;SDS011;63889;50.596;8.690;2024-03-08T09:05:59;25.38;;;10.88;;
14169;SDS011;63889;50.596;8.690;2024-03-08T09:08:25;24.77;;;10.38;;
14169;SDS011;63889;50.596;8.690;2024-03-08T09:10:51;27.33;;;10.93;;
14169;SDS011;63889;50.596;8.690;2024-03-08T09:13:16;23.75;;;9.93;;
14169;SDS011;63889;50.596;8.690;2024-03-08T09:15:43;23.33;;;10.23;;
14169;SDS011;63889;50.596;8.690;2024-03-08T09:18:08;25.98;;;10.15;;
14169;SDS011;63889;50.596;8.690;2024-03-08T09:20:35;21.75;;;9.45;;
14169;SDS011;63889;50.596;8.690;2024-03-08T09:23:01;28.25;;;11.00;;
14169;SDS011;63889;50.596;8.690;2024-03-08T09:25:28;25.33;;;10.23;;
14169;SDS011;63889;50.596;8.690;2024-03-08T09:27:54;28.27;;;11.52;;
14169;SDS011;63889;50.596;8.690;2024-03-08T09:30:20;28.58;;;10.90;;
14169;SDS011;63889;50.596;8.690;2024-03-08T09:32:46;22.00;;;10.77;;
14169;SDS011;63889;50.596;8.690;2024-03-08T09:35:12;27.35;;;10.75;;
14169;SDS011;63889;50.596;8.690;2024-03-08T09:37:38;23.73;;;11.02;;
14169;SDS011;63889;50.596;8.690;2024-03-08T09:40:03;20.15;;;9.50;;
14169;SDS011;63889;50.596;8.690;2024-03-08T09:42:34;28.10;;;10.85;;
14169;SDS011;63889;50.596;8.690;2024-03-08T09:45:03;24.08;;;10.15;;
14169;SDS011;63889;50.596;8.690;2024-03-08T09:47:35;22.38;;;10.23;;
14169;SDS011;63889;50.596;8.690;2024-03-08T09:50:06;21.30;;;10.60;;
14169;SDS011;63889;50.596;8.690;2024-03-08T09:52:34;28.90;;;11.50;;
14169;SDS011;63889;50.596;8.690;2024-03-08T09:55:05;25.00;;;10.70;;
14169;SDS011;63889;50.596;8.690;2024-03-08T09:57:32;24.05;;;10.05;;
14169;SDS011;63889;50.596;8.690;2024-03-08T09:59:58;26.58;;;11.55;;
14169;SDS011;63889;50.596;8.690;2024-03-08T10:02:24;24.35;;;10.55;;
14169;SDS011;63889;50.596;8.690;2024-03-08T10:04:51;24.45;;;10.70;;
14169;SDS011;63889;50.596;8.690;2024-03-08T10:07:18;23.25;;;9.75;;
14169;SDS011;63889;50.596;8.690;2024-03-08T10:09:44;23.70;;;10.07;;
14169;SDS011;63889;50.596;8.690;2024-03-08T10:12:15;22.37;;;10.13;;
14169;SDS011;63889;50.596;8.690;2024-03-08T10:14:42;25.92;;;10.20;;
14169;SDS011;63889;50.596;8.690;2024-03-08T10:17:08;23.45;;;10.32;;
14169;SDS011;63889;50.596;8.690;2024-03-08T10:19:34;22.17;;;9.98;;
14169;SDS011;63889;50.596;8.690;2024-03-08T10:21:59;21.30;;;9.57;;
14169;SDS011;63889;50.596;8.690;2024-03-08T10:24:25;19.85;;;10.27;;
14169;SDS011;63889;50.596;8.690;2024-03-08T10:26:52;24.23;;;9.70;;
14169;SDS011;63889;50.596;8.690;2024-03-08T10:29:18;22.25;;;9.95;;
14169;SDS011;63889;50.596;8.690;2024-03-08T10:31:44;25.23;;;10.40;;
14169;SDS011;63889;50.596;8.690;2024-03-08T10:34:10;21.98;;;9.75;;
14169;SDS011;63889;50.596;8.690;2024-03-08T10:36:36;22.77;;;9.98;;
14169;SDS011;63889;50.596;8.690;2024-03-08T10:39:03;21.00;;;9.85;;
14169;SDS011;63889;50.596;8.690;2024-03-08T10:41:32;21.15;;;9.18;;
14169;SDS011;63889;50.596;8.690;2024-03-08T10:44:10;21.75;;;10.32;;
14169;SDS011;63889;50.596;8.690;2024-03-08T10:47:11;18.13;;;8.50;;
14169;SDS011;63889;50.596;8.690;2024-03-08T10:52:16;19.85;;;9.95;;
14169;SDS011;63889;50.596;8.690;2024-03-08T10:54:43;18.17;;;8.80;;
14169;SDS011;63889;50.596;8.690;2024-03-08T10:57:10;17.75;;;8.85;;
14169;SDS011;63889;50.596;8.690;2024-03-08T10:59:38;17.52;;;8.77;;
14169;SDS011;63889;50.596;8.690;2024-03-08T11:02:04;17.13;;;8.57;;
14169;SDS011;63889;50.596;8.690;2024-03-08T11:04:33;20.88;;;8.05;;
14169;SDS011;63889;50.596;8.690;2024-03-08T11:07:02;14.05;;;7.38;;
14169;SDS011;63889;50.596;8.690;2024-03-08T11:09:31;17.95;;;8.07;;
14169;SDS011;63889;50.596;8.690;2024-03-08T11:14:46;19.00;;;8.48;;
14169;SDS011;63889;50.596;8.690;2024-03-08T11:17:16;19.30;;;8.20;;
14169;SDS011;63889;50.596;8.690;2024-03-08T11:22:40;15.95;;;7.93;;
14169;SDS011;63889;50.596;8.690;2024-03-08T11:25:15;13.32;;;6.55;;
14169;SDS011;63889;50.596;8.690;2024-03-08T11:28:11;15.27;;;7.00;;
14169;SDS011;63889;50.596;8.690;2024-03-08T11:31:21;16.67;;;7.80;;
14169;SDS011;63889;50.596;8.690;2024-03-08T11:33:51;15.10;;;7.93;;
14169;SDS011;63889;50.596;8.690;2024-03-08T11:36:22;16.33;;;7.95;;
14169;SDS011;63889;50.596;8.690;2024-03-08T11:38:49;15.55;;;7.32;;
14169;SDS011;63889;50.596;8.690;2024-03-08T11:41:18;16.02;;;7.57;;
14169;SDS011;63889;50.596;8.690;2024-03-08T11:43:45;16.13;;;7.93;;
14169;SDS011;63889;50.596;8.690;2024-03-08T11:46:11;15.50;;;7.55;;
14169;SDS011;63889;50.596;8.690;2024-03-08T11:48:38;16.88;;;8.48;;
14169;SDS011;63889;50.596;8.690;2024-03-08T11:51:07;17.67;;;7.38;;
14169;SDS011;63889;50.596;8.690;2024-03-08T11:53:33;20.17;;;8.30;;
14169;SDS011;63889;50.596;8.690;2024-03-08T11:56:08;18.48;;;7.53;;
14169;SDS011;63889;50.596;8.690;2024-03-08T11:58:38;18.00;;;7.60;;
14169;SDS011;63889;50.596;8.690;2024-03-08T12:01:05;15.90;;;7.68;;
14169;SDS011;63889;50.596;8.690;2024-03-08T12:03:32;36.80;;;9.07;;
14169;SDS011;63889;50.596;8.690;2024-03-08T12:05:59;16.00;;;7.28;;
14169;SDS011;63889;50.596;8.690;2024-03-08T12:08:25;23.27;;;8.35;;
14169;SDS011;63889;50.596;8.690;2024-03-08T12:10:53;17.85;;;8.05;;
14169;SDS011;63889;50.596;8.690;2024-03-08T12:13:24;12.57;;;7.03;;
14169;SDS011;63889;50.596;8.690;2024-03-08T12:15:54;15.18;;;7.05;;
14169;SDS011;63889;50.596;8.690;2024-03-08T12:18:27;13.25;;;6.70;;
14169;SDS011;63889;50.596;8.690;2024-03-08T12:21:04;11.10;;;6.45;;
14169;SDS011;63889;50.596;8.690;2024-03-08T12:23:34;18.83;;;7.78;;
14169;SDS011;63889;50.596;8.690;2024-03-08T12:26:13;12.90;;;6.90;;
14169;SDS011;63889;50.596;8.690;2024-03-08T12:28:39;16.83;;;7.00;;
14169;SDS011;63889;50.596;8.690;2024-03-08T12:31:07;15.52;;;6.50;;
14169;SDS011;63889;50.596;8.690;2024-03-08T12:33:37;13.13;;;6.55;;
14169;SDS011;63889;50.596;8.690;2024-03-08T12:36:24;12.02;;;6.18;;
14169;SDS011;63889;50.596;8.690;2024-03-08T12:38:50;15.82;;;6.95;;
14169;SDS011;63889;50.596;8.690;2024-03-08T12:41:16;10.55;;;5.78;;
14169;SDS011;63889;50.596;8.690;2024-03-08T12:43:43;10.45;;;5.85;;
14169;SDS011;63889;50.596;8.690;2024-03-08T12:46:16;10.88;;;5.75;;
14169;SDS011;63889;50.596;8.690;2024-03-08T12:48:46;11.48;;;6.03;;
14169;SDS011;63889;50.596;8.690;2024-03-08T12:51:15;11.52;;;5.78;;
14169;SDS011;63889;50.596;8.690;2024-03-08T12:53:43;9.80;;;5.10;;
14169;SDS011;63889;50.596;8.690;2024-03-08T12:56:09;11.48;;;5.10;;
14169;SDS011;63889;50.596;8.690;2024-03-08T12:58:35;11.57;;;5.47;;
14169;SDS011;63889;50.596;8.690;2024-03-08T13:01:02;12.75;;;6.60;;
14169;SDS011;63889;50.596;8.690;2024-03-08T13:03:32;10.43;;;5.37;;
14169;SDS011;63889;50.596;8.690;2024-03-08T13:06:00;14.27;;;6.85;;
14169;SDS011;63889;50.596;8.690;2024-03-08T13:08:27;16.27;;;6.88;;
14169;SDS011;63889;50.596;8.690;2024-03-08T13:10:54;13.88;;;6.47;;
14169;SDS011;63889;50.596;8.690;2024-03-08T13:13:20;11.13;;;5.65;;
14169;SDS011;63889;50.596;8.690;2024-03-08T13:15:45;12.20;;;5.80;;
14169;SDS011;63889;50.596;8.690;2024-03-08T13:18:11;10.80;;;5.80;;
14169;SDS011;63889;50.596;8.690;2024-03-08T13:20:36;12.52;;;6.53;;
14169;SDS011;63889;50.596;8.690;2024-03-08T13:23:06;10.32;;;5.75;;
14169;SDS011;63889;50.596;8.690;2024-03-08T13:25:33;11.65;;;5.53;;
14169;SDS011;63889;50.596;8.690;2024-03-08T13:27:59;12.23;;;6.18;;
14169;SDS011;63889;50.596;8.690;2024-03-08T13:30:25;14.30;;;7.05;;
14169;SDS011;63889;50.596;8.690;2024-03-08T13:32:54;13.15;;;6.60;;
14169;SDS011;63889;50.596;8.690;2024-03-08T13:35:20;12.23;;;6.95;;
14169;SDS011;63889;50.596;8.690;2024-03-08T13:37:53;14.13;;;6.35;;
14169;SDS011;63889;50.596;8.690;2024-03-08T13:40:18;11.23;;;6.25;;
14169;SDS011;63889;50.596;8.690;2024-03-08T13:42:45;18.80;;;7.50;;
14169;SDS011;63889;50.596;8.690;2024-03-08T13:45:16;14.65;;;6.47;;
14169;SDS011;63889;50.596;8.690;2024-03-08T13:47:49;14.27;;;6.85;;
14169;SDS011;63889;50.596;8.690;2024-03-08T13:50:17;11.40;;;6.60;;
14169;SDS011;63889;50.596;8.690;2024-03-08T13:52:46;15.85;;;8.15;;
14169;SDS011;63889;50.596;8.690;2024-03-08T13:55:16;16.58;;;7.63;;
14169;SDS011;63889;50.596;8.690;2024-03-08T13:57:42;16.73;;;6.97;;
14169;SDS011;63889;50.596;8.690;2024-03-08T14:00:10;16.55;;;6.93;;
14169;SDS011;63889;50.596;8.690;2024-03-08T14:02:36;15.73;;;6.93;;
14169;SDS011;63889;50.596;8.690;2024-03-08T14:05:02;15.88;;;7.68;;
14169;SDS011;63889;50.596;8.690;2024-03-08T14:07:28;17.50;;;7.47;;
14169;SDS011;63889;50.596;8.690;2024-03-08T14:09:54;14.00;;;7.00;;
14169;SDS011;63889;50.596;8.690;2024-03-08T14:12:20;14.95;;;7.40;;
14169;SDS011;63889;50.596;8.690;2024-03-08T14:14:45;17.02;;;7.10;;
14169;SDS011;63889;50.596;8.690;2024-03-08T14:17:11;15.82;;;7.97;;
14169;SDS011;63889;50.596;8.690;2024-03-08T14:19:42;15.10;;;7.10;;
14169;SDS011;63889;50.596;8.690;2024-03-08T14:22:07;14.70;;;6.90;;
14169;SDS011;63889;50.596;8.690;2024-03-08T14:24:38;14.15;;;7.18;;
14169;SDS011;63889;50.596;8.690;2024-03-08T14:27:04;16.10;;;7.47;;
14169;SDS011;63889;50.596;8.690;2024-03-08T14:29:33;13.10;;;7.07;;
14169;SDS011;63889;50.596;8.690;2024-03-08T14:31:59;15.50;;;7.28;;
14169;SDS011;63889;50.596;8.690;2024-03-08T14:34:25;15.23;;;6.35;;